Terminal Aerodrome Forecast
Issued by NWS

Home | Current Version | Previous Version | Text Only | Print | Product List | Glossary On
Versions: 1 2 3 4 5 6 7 8 9 10 11 12 13 14 15 16 17 18 19 20 21 22 23 24 25 26 27 28 29 30
658
FTUS42 KCAE 040520
TAFDNL
TAF
KDNL 040520Z 0406/0506 29005KT P6SM BKN060
     FM041300 30007KT P6SM FEW060
     FM041700 29011G17KT P6SM FEW050
     FM042300 28005KT P6SM SCT080=

USA.gov is the U.S. government's official web portal to all federal, state and local government web resources and services.